sensor_id;sensor_type;location;lat;lon;timestamp;P1;durP1;ratioP1;P2;durP2;ratioP2
38224;SDS011;24025;48.138;11.428;2023-02-28T00:00:22;2.42;;;1.42;;
38224;SDS011;24025;48.138;11.428;2023-02-28T00:02:53;1.88;;;1.27;;
38224;SDS011;24025;48.138;11.428;2023-02-28T00:05:24;4.22;;;1.67;;
38224;SDS011;24025;48.138;11.428;2023-02-28T00:07:55;3.22;;;1.52;;
38224;SDS011;24025;48.138;11.428;2023-02-28T00:10:27;2.58;;;1.30;;
38224;SDS011;24025;48.138;11.428;2023-02-28T00:12:59;7.28;;;1.30;;
38224;SDS011;24025;48.138;11.428;2023-02-28T00:15:32;3.38;;;1.52;;
38224;SDS011;24025;48.138;11.428;2023-02-28T00:18:03;3.63;;;1.42;;
38224;SDS011;24025;48.138;11.428;2023-02-28T00:20:33;1.92;;;1.40;;
38224;SDS011;24025;48.138;11.428;2023-02-28T00:23:04;2.55;;;1.58;;
38224;SDS011;24025;48.138;11.428;2023-02-28T00:25:34;2.85;;;1.63;;
38224;SDS011;24025;48.138;11.428;2023-02-28T00:28:04;3.35;;;1.65;;
38224;SDS011;24025;48.138;11.428;2023-02-28T00:30:35;1.67;;;1.02;;
38224;SDS011;24025;48.138;11.428;2023-02-28T00:33:05;2.13;;;1.45;;
38224;SDS011;24025;48.138;11.428;2023-02-28T00:35:36;2.97;;;1.90;;
38224;SDS011;24025;48.138;11.428;2023-02-28T00:38:06;2.92;;;1.40;;
38224;SDS011;24025;48.138;11.428;2023-02-28T00:40:37;3.17;;;1.42;;
38224;SDS011;24025;48.138;11.428;2023-02-28T00:43:07;3.67;;;1.73;;
38224;SDS011;24025;48.138;11.428;2023-02-28T00:45:37;3.63;;;1.70;;
38224;SDS011;24025;48.138;11.428;2023-02-28T00:48:08;4.38;;;1.55;;
38224;SDS011;24025;48.138;11.428;2023-02-28T00:50:38;1.85;;;1.40;;
38224;SDS011;24025;48.138;11.428;2023-02-28T00:53:09;3.58;;;1.77;;
38224;SDS011;24025;48.138;11.428;2023-02-28T00:55:39;3.15;;;1.65;;
38224;SDS011;24025;48.138;11.428;2023-02-28T00:58:09;3.83;;;2.00;;
38224;SDS011;24025;48.138;11.428;2023-02-28T01:00:41;3.20;;;1.40;;
38224;SDS011;24025;48.138;11.428;2023-02-28T01:03:12;2.53;;;1.50;;
38224;SDS011;24025;48.138;11.428;2023-02-28T01:05:42;6.00;;;1.77;;
38224;SDS011;24025;48.138;11.428;2023-02-28T01:08:14;4.25;;;1.83;;
38224;SDS011;24025;48.138;11.428;2023-02-28T01:10:44;4.85;;;2.05;;
38224;SDS011;24025;48.138;11.428;2023-02-28T01:13:15;4.93;;;1.88;;
38224;SDS011;24025;48.138;11.428;2023-02-28T01:15:49;3.60;;;1.48;;
38224;SDS011;24025;48.138;11.428;2023-02-28T01:18:22;5.80;;;1.85;;
38224;SDS011;24025;48.138;11.428;2023-02-28T01:20:52;5.65;;;1.67;;
38224;SDS011;24025;48.138;11.428;2023-02-28T01:23:23;4.38;;;1.83;;
38224;SDS011;24025;48.138;11.428;2023-02-28T01:25:54;3.72;;;1.40;;
38224;SDS011;24025;48.138;11.428;2023-02-28T01:28:25;3.80;;;1.60;;
38224;SDS011;24025;48.138;11.428;2023-02-28T01:30:55;5.07;;;2.15;;
38224;SDS011;24025;48.138;11.428;2023-02-28T01:33:25;4.10;;;1.83;;
38224;SDS011;24025;48.138;11.428;2023-02-28T01:38:30;5.28;;;2.25;;
38224;SDS011;24025;48.138;11.428;2023-02-28T01:41:02;4.22;;;1.40;;
38224;SDS011;24025;48.138;11.428;2023-02-28T01:46:13;3.30;;;1.88;;
38224;SDS011;24025;48.138;11.428;2023-02-28T01:48:46;4.83;;;1.97;;
38224;SDS011;24025;48.138;11.428;2023-02-28T01:51:40;4.20;;;1.40;;
38224;SDS011;24025;48.138;11.428;2023-02-28T01:54:22;2.85;;;1.80;;
38224;SDS011;24025;48.138;11.428;2023-02-28T01:56:56;4.45;;;1.83;;
38224;SDS011;24025;48.138;11.428;2023-02-28T02:02:19;4.75;;;1.83;;
38224;SDS011;24025;48.138;11.428;2023-02-28T02:04:53;4.22;;;1.90;;
38224;SDS011;24025;48.138;11.428;2023-02-28T02:07:32;4.20;;;1.83;;
38224;SDS011;24025;48.138;11.428;2023-02-28T02:10:10;4.30;;;1.83;;
38224;SDS011;24025;48.138;11.428;2023-02-28T02:18:52;4.55;;;1.90;;
38224;SDS011;24025;48.138;11.428;2023-02-28T02:35:52;3.45;;;1.75;;
38224;SDS011;24025;48.138;11.428;2023-02-28T02:47:02;6.30;;;2.05;;
38224;SDS011;24025;48.138;11.428;2023-02-28T02:49:40;3.35;;;1.65;;
38224;SDS011;24025;48.138;11.428;2023-02-28T02:52:16;5.28;;;2.30;;
38224;SDS011;24025;48.138;11.428;2023-02-28T02:54:51;3.63;;;2.00;;
38224;SDS011;24025;48.138;11.428;2023-02-28T02:57:30;3.03;;;1.80;;
38224;SDS011;24025;48.138;11.428;2023-02-28T03:00:07;2.63;;;1.90;;
38224;SDS011;24025;48.138;11.428;2023-02-28T03:02:38;3.85;;;1.55;;
38224;SDS011;24025;48.138;11.428;2023-02-28T03:05:27;3.58;;;1.90;;
38224;SDS011;24025;48.138;11.428;2023-02-28T03:08:04;3.25;;;1.73;;
38224;SDS011;24025;48.138;11.428;2023-02-28T03:14:02;4.10;;;2.22;;
38224;SDS011;24025;48.138;11.428;2023-02-28T03:27:29;5.53;;;2.08;;
38224;SDS011;24025;48.138;11.428;2023-02-28T03:30:07;5.43;;;2.40;;
38224;SDS011;24025;48.138;11.428;2023-02-28T03:32:50;4.03;;;2.33;;
38224;SDS011;24025;48.138;11.428;2023-02-28T03:35:31;3.63;;;2.22;;
38224;SDS011;24025;48.138;11.428;2023-02-28T03:38:13;3.78;;;1.90;;
38224;SDS011;24025;48.138;11.428;2023-02-28T03:40:50;4.10;;;2.30;;
38224;SDS011;24025;48.138;11.428;2023-02-28T03:43:27;4.97;;;2.65;;
38224;SDS011;24025;48.138;11.428;2023-02-28T03:46:01;4.93;;;2.45;;
38224;SDS011;24025;48.138;11.428;2023-02-28T03:48:40;5.88;;;1.95;;
38224;SDS011;24025;48.138;11.428;2023-02-28T03:51:18;4.32;;;2.50;;
38224;SDS011;24025;48.138;11.428;2023-02-28T03:53:53;5.25;;;2.70;;
38224;SDS011;24025;48.138;11.428;2023-02-28T03:56:33;4.55;;;2.63;;
38224;SDS011;24025;48.138;11.428;2023-02-28T03:59:18;4.20;;;2.10;;
38224;SDS011;24025;48.138;11.428;2023-02-28T04:01:55;4.45;;;2.45;;
38224;SDS011;24025;48.138;11.428;2023-02-28T04:07:03;4.43;;;2.30;;
38224;SDS011;24025;48.138;11.428;2023-02-28T04:09:35;7.70;;;2.50;;
38224;SDS011;24025;48.138;11.428;2023-02-28T04:12:06;3.35;;;2.80;;
38224;SDS011;24025;48.138;11.428;2023-02-28T04:14:36;7.63;;;2.90;;
38224;SDS011;24025;48.138;11.428;2023-02-28T04:17:07;8.38;;;2.78;;
38224;SDS011;24025;48.138;11.428;2023-02-28T04:19:37;7.22;;;2.50;;
38224;SDS011;24025;48.138;11.428;2023-02-28T04:22:09;4.35;;;2.60;;
38224;SDS011;24025;48.138;11.428;2023-02-28T04:24:40;7.63;;;3.33;;
38224;SDS011;24025;48.138;11.428;2023-02-28T04:27:11;3.97;;;2.53;;
38224;SDS011;24025;48.138;11.428;2023-02-28T04:29:41;5.38;;;2.58;;
38224;SDS011;24025;48.138;11.428;2023-02-28T04:32:14;5.07;;;3.08;;
38224;SDS011;24025;48.138;11.428;2023-02-28T04:34:44;4.97;;;3.20;;
38224;SDS011;24025;48.138;11.428;2023-02-28T04:37:15;5.65;;;2.95;;
38224;SDS011;24025;48.138;11.428;2023-02-28T04:39:45;6.70;;;3.10;;
38224;SDS011;24025;48.138;11.428;2023-02-28T04:42:15;5.88;;;3.10;;
38224;SDS011;24025;48.138;11.428;2023-02-28T04:44:46;6.13;;;2.80;;
38224;SDS011;24025;48.138;11.428;2023-02-28T04:47:17;5.05;;;3.03;;
38224;SDS011;24025;48.138;11.428;2023-02-28T04:49:47;4.50;;;2.75;;
38224;SDS011;24025;48.138;11.428;2023-02-28T04:52:18;7.88;;;3.30;;
38224;SDS011;24025;48.138;11.428;2023-02-28T04:54:48;7.15;;;3.63;;
38224;SDS011;24025;48.138;11.428;2023-02-28T04:57:19;8.10;;;3.47;;
38224;SDS011;24025;48.138;11.428;2023-02-28T04:59:49;7.32;;;3.30;;
38224;SDS011;24025;48.138;11.428;2023-02-28T05:02:20;11.75;;;4.13;;
38224;SDS011;24025;48.138;11.428;2023-02-28T05:04:51;5.38;;;3.35;;
38224;SDS011;24025;48.138;11.428;2023-02-28T05:07:21;7.30;;;3.72;;
38224;SDS011;24025;48.138;11.428;2023-02-28T05:09:52;7.72;;;3.28;;
38224;SDS011;24025;48.138;11.428;2023-02-28T05:12:23;7.00;;;4.10;;
38224;SDS011;24025;48.138;11.428;2023-02-28T05:14:53;9.38;;;4.75;;
38224;SDS011;24025;48.138;11.428;2023-02-28T05:17:23;5.85;;;3.85;;
38224;SDS011;24025;48.138;11.428;2023-02-28T05:19:54;9.30;;;4.05;;
38224;SDS011;24025;48.138;11.428;2023-02-28T05:22:24;9.45;;;4.57;;
38224;SDS011;24025;48.138;11.428;2023-02-28T05:24:55;8.52;;;4.05;;
38224;SDS011;24025;48.138;11.428;2023-02-28T05:27:25;9.27;;;4.43;;
38224;SDS011;24025;48.138;11.428;2023-02-28T05:29:58;8.45;;;4.57;;
38224;SDS011;24025;48.138;11.428;2023-02-28T05:32:28;11.77;;;5.07;;
38224;SDS011;24025;48.138;11.428;2023-02-28T05:34:59;8.05;;;4.35;;
38224;SDS011;24025;48.138;11.428;2023-02-28T05:37:29;8.40;;;4.65;;
38224;SDS011;24025;48.138;11.428;2023-02-28T05:40:00;10.52;;;4.90;;
38224;SDS011;24025;48.138;11.428;2023-02-28T05:42:31;7.75;;;4.07;;
38224;SDS011;24025;48.138;11.428;2023-02-28T05:45:02;6.95;;;3.90;;
38224;SDS011;24025;48.138;11.428;2023-02-28T05:47:32;18.38;;;5.20;;
38224;SDS011;24025;48.138;11.428;2023-02-28T05:50:04;11.23;;;4.97;;
38224;SDS011;24025;48.138;11.428;2023-02-28T05:52:36;8.63;;;4.88;;
38224;SDS011;24025;48.138;11.428;2023-02-28T05:55:07;12.38;;;6.15;;
38224;SDS011;24025;48.138;11.428;2023-02-28T05:57:38;11.82;;;5.82;;
38224;SDS011;24025;48.138;11.428;2023-02-28T06:00:09;12.52;;;5.78;;
38224;SDS011;24025;48.138;11.428;2023-02-28T06:02:40;13.43;;;5.70;;
38224;SDS011;24025;48.138;11.428;2023-02-28T06:05:14;9.68;;;5.47;;
38224;SDS011;24025;48.138;11.428;2023-02-28T06:07:46;10.88;;;5.95;;
38224;SDS011;24025;48.138;11.428;2023-02-28T06:10:16;13.93;;;6.15;;
38224;SDS011;24025;48.138;11.428;2023-02-28T06:12:47;10.80;;;6.43;;
38224;SDS011;24025;48.138;11.428;2023-02-28T06:15:17;14.65;;;6.25;;
38224;SDS011;24025;48.138;11.428;2023-02-28T06:17:48;10.00;;;6.18;;
38224;SDS011;24025;48.138;11.428;2023-02-28T06:20:18;13.05;;;6.65;;
38224;SDS011;24025;48.138;11.428;2023-02-28T06:22:48;10.23;;;6.15;;
38224;SDS011;24025;48.138;11.428;2023-02-28T06:25:20;12.35;;;6.07;;
38224;SDS011;24025;48.138;11.428;2023-02-28T06:27:51;12.00;;;6.60;;
38224;SDS011;24025;48.138;11.428;2023-02-28T06:30:21;12.45;;;6.47;;
38224;SDS011;24025;48.138;11.428;2023-02-28T06:32:56;11.57;;;6.97;;
38224;SDS011;24025;48.138;11.428;2023-02-28T06:35:27;10.32;;;5.97;;
38224;SDS011;24025;48.138;11.428;2023-02-28T06:37:57;15.80;;;7.00;;
38224;SDS011;24025;48.138;11.428;2023-02-28T06:40:27;13.70;;;6.97;;
38224;SDS011;24025;48.138;11.428;2023-02-28T06:42:58;12.10;;;6.72;;
38224;SDS011;24025;48.138;11.428;2023-02-28T06:45:28;11.38;;;6.10;;
38224;SDS011;24025;48.138;11.428;2023-02-28T06:47:59;13.00;;;6.78;;
38224;SDS011;24025;48.138;11.428;2023-02-28T06:50:30;12.38;;;6.30;;
38224;SDS011;24025;48.138;11.428;2023-02-28T06:55:32;10.27;;;6.50;;
38224;SDS011;24025;48.138;11.428;2023-02-28T06:58:03;15.00;;;7.20;;
38224;SDS011;24025;48.138;11.428;2023-02-28T07:00:33;15.27;;;7.65;;
38224;SDS011;24025;48.138;11.428;2023-02-28T07:03:04;14.02;;;7.80;;
38224;SDS011;24025;48.138;11.428;2023-02-28T07:05:35;12.30;;;6.97;;
38224;SDS011;24025;48.138;11.428;2023-02-28T07:08:07;13.75;;;7.03;;
38224;SDS011;24025;48.138;11.428;2023-02-28T07:10:38;11.07;;;6.78;;
38224;SDS011;24025;48.138;11.428;2023-02-28T07:13:09;12.80;;;6.75;;
38224;SDS011;24025;48.138;11.428;2023-02-28T07:15:40;15.25;;;7.68;;
38224;SDS011;24025;48.138;11.428;2023-02-28T07:18:10;13.15;;;7.30;;
38224;SDS011;24025;48.138;11.428;2023-02-28T07:20:41;14.45;;;7.80;;
38224;SDS011;24025;48.138;11.428;2023-02-28T07:23:11;16.83;;;7.78;;
38224;SDS011;24025;48.138;11.428;2023-02-28T07:25:42;14.02;;;7.40;;
38224;SDS011;24025;48.138;11.428;2023-02-28T07:28:12;13.70;;;7.18;;
38224;SDS011;24025;48.138;11.428;2023-02-28T07:30:43;15.82;;;7.28;;
38224;SDS011;24025;48.138;11.428;2023-02-28T07:33:14;16.33;;;7.72;;
38224;SDS011;24025;48.138;11.428;2023-02-28T07:35:44;14.93;;;7.35;;
38224;SDS011;24025;48.138;11.428;2023-02-28T07:38:15;12.18;;;6.85;;
38224;SDS011;24025;48.138;11.428;2023-02-28T07:40:45;15.15;;;6.97;;
38224;SDS011;24025;48.138;11.428;2023-02-28T07:43:15;14.45;;;7.25;;
38224;SDS011;24025;48.138;11.428;2023-02-28T07:45:46;14.63;;;7.45;;
38224;SDS011;24025;48.138;11.428;2023-02-28T07:48:16;17.27;;;8.35;;
38224;SDS011;24025;48.138;11.428;2023-02-28T07:50:53;14.27;;;7.80;;
38224;SDS011;24025;48.138;11.428;2023-02-28T07:53:26;13.50;;;8.00;;
38224;SDS011;24025;48.138;11.428;2023-02-28T07:55:58;11.48;;;7.40;;
38224;SDS011;24025;48.138;11.428;2023-02-28T07:58:30;14.90;;;7.90;;
38224;SDS011;24025;48.138;11.428;2023-02-28T08:01:04;16.63;;;8.90;;
38224;SDS011;24025;48.138;11.428;2023-02-28T08:03:36;13.60;;;7.32;;
38224;SDS011;24025;48.138;11.428;2023-02-28T08:06:08;14.98;;;7.78;;
38224;SDS011;24025;48.138;11.428;2023-02-28T08:08:45;14.68;;;7.30;;
38224;SDS011;24025;48.138;11.428;2023-02-28T08:11:16;17.63;;;7.57;;
38224;SDS011;24025;48.138;11.428;2023-02-28T08:13:47;13.82;;;7.97;;
38224;SDS011;24025;48.138;11.428;2023-02-28T08:16:20;16.50;;;7.22;;
38224;SDS011;24025;48.138;11.428;2023-02-28T08:18:52;15.88;;;7.57;;
38224;SDS011;24025;48.138;11.428;2023-02-28T08:21:23;17.33;;;8.10;;
38224;SDS011;24025;48.138;11.428;2023-02-28T08:23:53;14.23;;;7.60;;
38224;SDS011;24025;48.138;11.428;2023-02-28T08:26:24;13.52;;;8.00;;
38224;SDS011;24025;48.138;11.428;2023-02-28T08:28:54;12.48;;;7.72;;
38224;SDS011;24025;48.138;11.428;2023-02-28T08:31:25;14.93;;;8.13;;
38224;SDS011;24025;48.138;11.428;2023-02-28T08:33:55;13.43;;;7.68;;
38224;SDS011;24025;48.138;11.428;2023-02-28T08:36:28;15.75;;;8.40;;
38224;SDS011;24025;48.138;11.428;2023-02-28T08:38:59;13.75;;;7.75;;
38224;SDS011;24025;48.138;11.428;2023-02-28T08:41:29;15.57;;;8.40;;
38224;SDS011;24025;48.138;11.428;2023-02-28T08:44:00;12.98;;;8.23;;
38224;SDS011;24025;48.138;11.428;2023-02-28T08:46:31;14.48;;;8.13;;
38224;SDS011;24025;48.138;11.428;2023-02-28T08:49:01;17.20;;;7.72;;
38224;SDS011;24025;48.138;11.428;2023-02-28T08:51:32;19.38;;;7.88;;
38224;SDS011;24025;48.138;11.428;2023-02-28T08:54:02;19.90;;;8.25;;
38224;SDS011;24025;48.138;11.428;2023-02-28T08:56:33;16.80;;;8.00;;
38224;SDS011;24025;48.138;11.428;2023-02-28T08:59:03;16.00;;;8.75;;
38224;SDS011;24025;48.138;11.428;2023-02-28T09:01:34;11.75;;;7.53;;
38224;SDS011;24025;48.138;11.428;2023-02-28T09:04:06;13.88;;;8.75;;
38224;SDS011;24025;48.138;11.428;2023-02-28T09:06:38;13.60;;;8.50;;
38224;SDS011;24025;48.138;11.428;2023-02-28T09:09:08;13.15;;;7.82;;
38224;SDS011;24025;48.138;11.428;2023-02-28T09:11:39;14.57;;;7.22;;
38224;SDS011;24025;48.138;11.428;2023-02-28T09:14:09;13.95;;;8.07;;
38224;SDS011;24025;48.138;11.428;2023-02-28T09:16:40;12.48;;;7.43;;
38224;SDS011;24025;48.138;11.428;2023-02-28T09:19:13;19.90;;;8.45;;
38224;SDS011;24025;48.138;11.428;2023-02-28T09:21:45;13.25;;;7.63;;
38224;SDS011;24025;48.138;11.428;2023-02-28T09:24:15;12.45;;;7.18;;
38224;SDS011;24025;48.138;11.428;2023-02-28T09:26:46;12.88;;;7.30;;
38224;SDS011;24025;48.138;11.428;2023-02-28T09:29:16;11.40;;;7.18;;
38224;SDS011;24025;48.138;11.428;2023-02-28T09:31:47;15.43;;;7.65;;
38224;SDS011;24025;48.138;11.428;2023-02-28T09:34:18;11.60;;;7.60;;
38224;SDS011;24025;48.138;11.428;2023-02-28T09:36:48;15.43;;;8.18;;
38224;SDS011;24025;48.138;11.428;2023-02-28T09:39:23;12.68;;;7.28;;
38224;SDS011;24025;48.138;11.428;2023-02-28T09:41:56;12.68;;;7.47;;
38224;SDS011;24025;48.138;11.428;2023-02-28T09:44:38;14.20;;;7.85;;
38224;SDS011;24025;48.138;11.428;2023-02-28T09:47:13;14.25;;;8.00;;
38224;SDS011;24025;48.138;11.428;2023-02-28T09:52:17;15.75;;;7.65;;
38224;SDS011;24025;48.138;11.428;2023-02-28T09:54:50;11.13;;;6.70;;
38224;SDS011;24025;48.138;11.428;2023-02-28T10:00:03;13.55;;;8.02;;
38224;SDS011;24025;48.138;11.428;2023-02-28T10:05:20;13.95;;;7.93;;
38224;SDS011;24025;48.138;11.428;2023-02-28T10:08:17;17.45;;;8.25;;
38224;SDS011;24025;48.138;11.428;2023-02-28T10:11:01;15.05;;;7.60;;
38224;SDS011;24025;48.138;11.428;2023-02-28T10:16:10;14.43;;;7.63;;
38224;SDS011;24025;48.138;11.428;2023-02-28T10:21:24;12.18;;;7.45;;
38224;SDS011;24025;48.138;11.428;2023-02-28T10:24:02;10.85;;;7.55;;
38224;SDS011;24025;48.138;11.428;2023-02-28T10:26:43;16.05;;;8.48;;
38224;SDS011;24025;48.138;11.428;2023-02-28T10:29:17;13.85;;;7.40;;
38224;SDS011;24025;48.138;11.428;2023-02-28T10:34:20;16.95;;;8.02;;
38224;SDS011;24025;48.138;11.428;2023-02-28T10:36:51;14.50;;;7.30;;
38224;SDS011;24025;48.138;11.428;2023-02-28T10:39:33;14.23;;;7.88;;
38224;SDS011;24025;48.138;11.428;2023-02-28T10:45:06;11.50;;;7.07;;
38224;SDS011;24025;48.138;11.428;2023-02-28T10:47:49;16.65;;;7.43;;
38224;SDS011;24025;48.138;11.428;2023-02-28T10:55:57;13.40;;;6.97;;
38224;SDS011;24025;48.138;11.428;2023-02-28T11:01:44;12.13;;;7.30;;
38224;SDS011;24025;48.138;11.428;2023-02-28T11:06:59;13.15;;;7.50;;
38224;SDS011;24025;48.138;11.428;2023-02-28T11:09:35;14.43;;;8.38;;
38224;SDS011;24025;48.138;11.428;2023-02-28T11:12:19;14.30;;;7.07;;
38224;SDS011;24025;48.138;11.428;2023-02-28T11:14:55;11.80;;;7.15;;
38224;SDS011;24025;48.138;11.428;2023-02-28T11:17:32;14.82;;;7.95;;
38224;SDS011;24025;48.138;11.428;2023-02-28T11:20:04;12.13;;;7.45;;
38224;SDS011;24025;48.138;11.428;2023-02-28T11:22:37;14.77;;;7.85;;
38224;SDS011;24025;48.138;11.428;2023-02-28T11:25:19;12.82;;;7.43;;
38224;SDS011;24025;48.138;11.428;2023-02-28T11:27:51;18.75;;;7.85;;
38224;SDS011;24025;48.138;11.428;2023-02-28T11:30:34;14.18;;;7.65;;
38224;SDS011;24025;48.138;11.428;2023-02-28T11:33:26;13.63;;;7.45;;
38224;SDS011;24025;48.138;11.428;2023-02-28T11:36:04;13.57;;;6.75;;
38224;SDS011;24025;48.138;11.428;2023-02-28T11:38:41;11.90;;;6.82;;
38224;SDS011;24025;48.138;11.428;2023-02-28T11:41:16;13.23;;;6.82;;
38224;SDS011;24025;48.138;11.428;2023-02-28T11:44:09;14.70;;;7.55;;
38224;SDS011;24025;48.138;11.428;2023-02-28T11:47:17;14.82;;;8.57;;
38224;SDS011;24025;48.138;11.428;2023-02-28T11:52:53;13.95;;;8.13;;
38224;SDS011;24025;48.138;11.428;2023-02-28T11:55:49;12.98;;;6.97;;
38224;SDS011;24025;48.138;11.428;2023-02-28T12:09:34;10.70;;;6.97;;
38224;SDS011;24025;48.138;11.428;2023-02-28T12:21:26;15.32;;;7.75;;
38224;SDS011;24025;48.138;11.428;2023-02-28T12:27:18;10.05;;;6.20;;
38224;SDS011;24025;48.138;11.428;2023-02-28T12:29:57;10.77;;;6.82;;
38224;SDS011;24025;48.138;11.428;2023-02-28T12:32:39;12.30;;;7.57;;
38224;SDS011;24025;48.138;11.428;2023-02-28T12:35:16;14.63;;;7.63;;
38224;SDS011;24025;48.138;11.428;2023-02-28T12:37:56;13.15;;;7.40;;
38224;SDS011;24025;48.138;11.428;2023-02-28T12:40:42;11.20;;;7.53;;
38224;SDS011;24025;48.138;11.428;2023-02-28T12:43:16;10.98;;;7.20;;
38224;SDS011;24025;48.138;11.428;2023-02-28T12:45:52;10.75;;;7.75;;
38224;SDS011;24025;48.138;11.428;2023-02-28T12:51:07;11.57;;;6.85;;
38224;SDS011;24025;48.138;11.428;2023-02-28T13:07:58;9.18;;;5.78;;
38224;SDS011;24025;48.138;11.428;2023-02-28T13:11:05;10.50;;;5.82;;
38224;SDS011;24025;48.138;11.428;2023-02-28T13:13:29;9.80;;;6.03;;
38224;SDS011;24025;48.138;11.428;2023-02-28T13:21:28;9.38;;;6.38;;
38224;SDS011;24025;48.138;11.428;2023-02-28T13:24:00;8.10;;;5.88;;
38224;SDS011;24025;48.138;11.428;2023-02-28T13:34:39;8.02;;;5.88;;
38224;SDS011;24025;48.138;11.428;2023-02-28T13:39:53;12.57;;;6.30;;
38224;SDS011;24025;48.138;11.428;2023-02-28T13:58:55;11.57;;;6.25;;
38224;SDS011;24025;48.138;11.428;2023-02-28T14:07:27;10.85;;;6.88;;
38224;SDS011;24025;48.138;11.428;2023-02-28T14:10:05;9.15;;;5.90;;
38224;SDS011;24025;48.138;11.428;2023-02-28T14:12:58;11.05;;;6.93;;
38224;SDS011;24025;48.138;11.428;2023-02-28T14:18:05;9.45;;;6.07;;
38224;SDS011;24025;48.138;11.428;2023-02-28T14:20:46;10.73;;;6.88;;
38224;SDS011;24025;48.138;11.428;2023-02-28T14:26:01;9.85;;;5.90;;
38224;SDS011;24025;48.138;11.428;2023-02-28T14:28:56;10.95;;;6.18;;
38224;SDS011;24025;48.138;11.428;2023-02-28T14:32:01;10.60;;;6.63;;
38224;SDS011;24025;48.138;11.428;2023-02-28T14:34:38;9.00;;;6.20;;
38224;SDS011;24025;48.138;11.428;2023-02-28T14:37:29;13.38;;;6.28;;
38224;SDS011;24025;48.138;11.428;2023-02-28T14:40:04;9.88;;;5.55;;
38224;SDS011;24025;48.138;11.428;2023-02-28T14:42:45;17.58;;;7.20;;
38224;SDS011;24025;48.138;11.428;2023-02-28T14:45:21;10.35;;;6.10;;
38224;SDS011;24025;48.138;11.428;2023-02-28T14:47:52;9.75;;;5.63;;
38224;SDS011;24025;48.138;11.428;2023-02-28T14:50:24;8.80;;;5.88;;
38224;SDS011;24025;48.138;11.428;2023-02-28T14:53:00;9.98;;;6.05;;
38224;SDS011;24025;48.138;11.428;2023-02-28T14:55:34;10.27;;;5.80;;
38224;SDS011;24025;48.138;11.428;2023-02-28T14:58:06;9.95;;;6.28;;
38224;SDS011;24025;48.138;11.428;2023-02-28T15:00:52;11.82;;;6.40;;
38224;SDS011;24025;48.138;11.428;2023-02-28T15:03:30;11.68;;;6.28;;
38224;SDS011;24025;48.138;11.428;2023-02-28T15:06:06;7.88;;;5.95;;
38224;SDS011;24025;48.138;11.428;2023-02-28T15:08:44;9.18;;;5.60;;
38224;SDS011;24025;48.138;11.428;2023-02-28T15:11:18;9.00;;;5.97;;
38224;SDS011;24025;48.138;11.428;2023-02-28T15:13:52;9.38;;;5.90;;
38224;SDS011;24025;48.138;11.428;2023-02-28T15:16:29;12.50;;;6.55;;
38224;SDS011;24025;48.138;11.428;2023-02-28T15:19:05;11.23;;;6.25;;
38224;SDS011;24025;48.138;11.428;2023-02-28T15:21:42;13.07;;;6.35;;
38224;SDS011;24025;48.138;11.428;2023-02-28T15:26:54;9.20;;;6.30;;
38224;SDS011;24025;48.138;11.428;2023-02-28T15:29:31;12.35;;;5.97;;
38224;SDS011;24025;48.138;11.428;2023-02-28T15:32:23;10.40;;;6.03;;
38224;SDS011;24025;48.138;11.428;2023-02-28T15:34:57;10.45;;;5.65;;
38224;SDS011;24025;48.138;11.428;2023-02-28T15:40:13;11.30;;;6.15;;
38224;SDS011;24025;48.138;11.428;2023-02-28T15:45:38;11.40;;;6.53;;
38224;SDS011;24025;48.138;11.428;2023-02-28T15:48:18;10.93;;;5.90;;
38224;SDS011;24025;48.138;11.428;2023-02-28T15:50:56;14.05;;;6.70;;
38224;SDS011;24025;48.138;11.428;2023-02-28T15:54:04;9.20;;;5.82;;
38224;SDS011;24025;48.138;11.428;2023-02-28T15:56:30;14.05;;;5.90;;
38224;SDS011;24025;48.138;11.428;2023-02-28T15:59:03;12.02;;;5.95;;
38224;SDS011;24025;48.138;11.428;2023-02-28T16:01:37;9.98;;;5.80;;
38224;SDS011;24025;48.138;11.428;2023-02-28T16:04:18;10.98;;;6.38;;
38224;SDS011;24025;48.138;11.428;2023-02-28T16:09:28;13.55;;;7.18;;
38224;SDS011;24025;48.138;11.428;2023-02-28T16:12:01;8.30;;;5.68;;
38224;SDS011;24025;48.138;11.428;2023-02-28T16:14:33;11.07;;;5.97;;
38224;SDS011;24025;48.138;11.428;2023-02-28T16:17:13;10.15;;;6.03;;
38224;SDS011;24025;48.138;11.428;2023-02-28T16:19:51;11.13;;;6.72;;
38224;SDS011;24025;48.138;11.428;2023-02-28T16:22:22;12.27;;;6.43;;
38224;SDS011;24025;48.138;11.428;2023-02-28T16:24:52;10.45;;;6.13;;
38224;SDS011;24025;48.138;11.428;2023-02-28T16:27:28;13.00;;;7.15;;
38224;SDS011;24025;48.138;11.428;2023-02-28T16:30:03;14.90;;;7.20;;
38224;SDS011;24025;48.138;11.428;2023-02-28T16:32:47;14.55;;;7.10;;
38224;SDS011;24025;48.138;11.428;2023-02-28T16:35:19;11.57;;;6.43;;
38224;SDS011;24025;48.138;11.428;2023-02-28T16:37:52;11.07;;;6.45;;
38224;SDS011;24025;48.138;11.428;2023-02-28T16:40:24;12.00;;;6.80;;
38224;SDS011;24025;48.138;11.428;2023-02-28T16:42:57;14.95;;;6.55;;
38224;SDS011;24025;48.138;11.428;2023-02-28T16:45:31;12.77;;;5.95;;
38224;SDS011;24025;48.138;11.428;2023-02-28T16:48:01;10.25;;;6.88;;
38224;SDS011;24025;48.138;11.428;2023-02-28T16:50:32;20.33;;;7.55;;
38224;SDS011;24025;48.138;11.428;2023-02-28T16:53:05;9.82;;;6.35;;
38224;SDS011;24025;48.138;11.428;2023-02-28T16:55:36;13.07;;;7.07;;
38224;SDS011;24025;48.138;11.428;2023-02-28T16:58:11;16.58;;;7.97;;
38224;SDS011;24025;48.138;11.428;2023-02-28T17:00:45;11.95;;;6.50;;
38224;SDS011;24025;48.138;11.428;2023-02-28T17:03:21;12.32;;;6.35;;
38224;SDS011;24025;48.138;11.428;2023-02-28T17:05:56;10.07;;;6.10;;
38224;SDS011;24025;48.138;11.428;2023-02-28T17:08:27;10.43;;;6.32;;
38224;SDS011;24025;48.138;11.428;2023-02-28T17:10:59;13.13;;;6.95;;
38224;SDS011;24025;48.138;11.428;2023-02-28T17:13:32;10.32;;;6.90;;
38224;SDS011;24025;48.138;11.428;2023-02-28T17:18:41;15.27;;;7.03;;
38224;SDS011;24025;48.138;11.428;2023-02-28T17:21:14;14.10;;;7.10;;
38224;SDS011;24025;48.138;11.428;2023-02-28T17:23:45;18.30;;;7.50;;
38224;SDS011;24025;48.138;11.428;2023-02-28T17:26:17;12.25;;;6.95;;
38224;SDS011;24025;48.138;11.428;2023-02-28T17:28:51;11.65;;;6.85;;
38224;SDS011;24025;48.138;11.428;2023-02-28T17:31:23;14.38;;;7.10;;
38224;SDS011;24025;48.138;11.428;2023-02-28T17:33:55;19.38;;;7.28;;
38224;SDS011;24025;48.138;11.428;2023-02-28T17:36:26;14.35;;;7.18;;
38224;SDS011;24025;48.138;11.428;2023-02-28T17:38:59;20.58;;;10.00;;
38224;SDS011;24025;48.138;11.428;2023-02-28T17:41:31;17.35;;;10.13;;
38224;SDS011;24025;48.138;11.428;2023-02-28T17:44:01;31.35;;;17.48;;
38224;SDS011;24025;48.138;11.428;2023-02-28T17:46:32;42.30;;;20.80;;
38224;SDS011;24025;48.138;11.428;2023-02-28T17:49:03;47.60;;;23.77;;
38224;SDS011;24025;48.138;11.428;2023-02-28T17:51:33;26.50;;;13.80;;
38224;SDS011;24025;48.138;11.428;2023-02-28T17:54:04;16.30;;;10.75;;
38224;SDS011;24025;48.138;11.428;2023-02-28T17:56:35;13.63;;;8.40;;
38224;SDS011;24025;48.138;11.428;2023-02-28T17:59:08;13.80;;;7.78;;
38224;SDS011;24025;48.138;11.428;2023-02-28T18:01:39;11.35;;;7.30;;
38224;SDS011;24025;48.138;11.428;2023-02-28T18:04:10;12.77;;;7.70;;
38224;SDS011;24025;48.138;11.428;2023-02-28T18:06:41;13.85;;;7.93;;
38224;SDS011;24025;48.138;11.428;2023-02-28T18:09:17;17.35;;;8.60;;
38224;SDS011;24025;48.138;11.428;2023-02-28T18:11:52;16.77;;;8.90;;